Welcome to Des Moines Iowa Weather. I am an independent private personal weather station on the Northwest Side of Des Moines, Iowa. Just East of Windsor Heights and just West of Glendale . This site is also mobile friendly.

There are no active watches, warnings or advisories


Visit our other weather sites:

Historical Data

Weather Station Setup



Weather Underground History page Text

Daily Summary for March 20, 2017 Units:  English    Metric   Both
« Previous Day
Next Day »
Daily Weekly Monthly Yearly Custom
  High: Low: Average:
Temperature: 65.7 °F 43.5 °F 54.7 °F
Dew Point: 47.0 °F 33.0 °F 40.6 °F
Humidity: 82 % 36 % 61 %
Wind Speed: 11.0 mph 0.0 mph 2.7 mph
Wind Gust: 19.0 mph - -
Wind:- - East
Pressure: 30.18 in 29.85 in -
Precipitation: 0.00 in    
Historical Graphs
 
 
Tabular Data for March 20, 2017
Time Temperature Dew Point Pressure Wind Wind Speed Wind Gust Humidity Rainfall Rate (Hourly)
00:11 52.5 °F 42.0 °F 29.91 in Calm   2.0 mph 67 % 0.00 in
00:26 51.9 °F 42.0 °F 29.92 in ENE 1.0 mph 3.0 mph 68 % 0.00 in
00:41 51.5 °F 42.0 °F 29.91 in ENE 4.0 mph 8.0 mph 69 % 0.00 in
00:56 51.5 °F 42.0 °F 29.91 in Calm   5.0 mph 69 % 0.00 in
01:11 51.1 °F 41.0 °F 29.90 in Calm   3.0 mph 69 % 0.00 in
01:26 50.7 °F 41.0 °F 29.90 in Calm   4.0 mph 70 % 0.00 in
01:41 50.4 °F 41.0 °F 29.89 in East 3.0 mph 4.0 mph 70 % 0.00 in
01:57 50.1 °F 40.0 °F 29.90 in Calm   6.0 mph 69 % 0.00 in
02:11 49.9 °F 40.0 °F 29.89 in East 3.0 mph 5.0 mph 69 % 0.00 in
02:26 49.6 °F 40.0 °F 29.89 in Calm   5.0 mph 70 % 0.00 in
02:41 49.6 °F 40.0 °F 29.87 in Calm   6.0 mph 70 % 0.00 in
02:56 49.6 °F 41.0 °F 29.87 in Calm     71 % 0.00 in
03:11 49.5 °F 40.0 °F 29.86 in Calm     70 % 0.00 in
03:26 49.2 °F 40.0 °F 29.85 in Calm   3.0 mph 71 % 0.00 in
03:41 48.8 °F 40.0 °F 29.86 in Calm   2.0 mph 71 % 0.00 in
03:56 48.4 °F 40.0 °F 29.85 in Calm     72 % 0.00 in
04:11 47.9 °F 40.0 °F 29.86 in Calm     73 % 0.00 in
04:26 47.4 °F 39.0 °F 29.85 in Calm     73 % 0.00 in
04:42 46.8 °F 39.0 °F 29.85 in Calm     74 % 0.00 in
04:57 46.3 °F 39.0 °F 29.86 in Calm     75 % 0.00 in
05:12 45.9 °F 39.0 °F 29.86 in Calm     76 % 0.00 in
05:28 45.5 °F 39.0 °F 29.86 in Calm     77 % 0.00 in
05:42 45.2 °F 38.0 °F 29.87 in Calm     77 % 0.00 in
05:57 44.9 °F 38.0 °F 29.87 in Calm     78 % 0.00 in
06:12 44.6 °F 38.0 °F 29.88 in Calm     79 % 0.00 in
06:27 44.4 °F 38.0 °F 29.89 in Calm     79 % 0.00 in
06:42 44.3 °F 38.0 °F 29.89 in Calm     79 % 0.00 in
06:57 43.9 °F 38.0 °F 29.91 in Calm     79 % 0.00 in
07:27 43.5 °F 38.0 °F 29.92 in NE 3.0 mph 4.0 mph 81 % 0.00 in
07:42 43.5 °F 38.0 °F 29.93 in Calm   6.0 mph 81 % 0.00 in
07:57 43.6 °F 38.0 °F 29.95 in NNW 2.0 mph 8.0 mph 82 % 0.00 in
08:12 43.7 °F 39.0 °F 29.95 in North 3.0 mph 5.0 mph 82 % 0.00 in
08:27 43.9 °F 38.0 °F 29.97 in Calm   8.0 mph 81 % 0.00 in
08:42 44.5 °F 39.0 °F 29.98 in NNW 8.0 mph 9.0 mph 81 % 0.00 in
08:57 45.5 °F 40.0 °F 29.97 in Calm   8.0 mph 80 % 0.00 in
09:12 46.9 °F 40.0 °F 29.98 in NE 4.0 mph 11.0 mph 77 % 0.00 in
09:27 48.8 °F 40.0 °F 29.98 in NNE 3.0 mph 12.0 mph 73 % 0.00 in
09:42 50.3 °F 41.0 °F 29.99 in NE 3.0 mph 11.0 mph 71 % 0.00 in
09:57 51.5 °F 41.0 °F 29.99 in NNE 5.0 mph 13.0 mph 68 % 0.00 in
10:12 52.8 °F 42.0 °F 30.00 in ENE 5.0 mph 13.0 mph 67 % 0.00 in
10:27 54.2 °F 42.0 °F 30.01 in ESE 6.0 mph 12.0 mph 64 % 0.00 in
10:42 54.9 °F 43.0 °F 30.01 in ENE 9.0 mph 14.0 mph 64 % 0.00 in
10:58 56.0 °F 43.0 °F 30.01 in ENE 5.0 mph 13.0 mph 62 % 0.00 in
11:13 58.0 °F 44.0 °F 30.01 in NE 5.0 mph 13.0 mph 59 % 0.00 in
11:28 59.2 °F 44.0 °F 30.00 in East 4.0 mph 16.0 mph 57 % 0.00 in
11:43 60.3 °F 44.0 °F 30.01 in NE 5.0 mph 13.0 mph 55 % 0.00 in
11:58 61.7 °F 44.0 °F 30.01 in ENE 11.0 mph 11.0 mph 53 % 0.00 in
12:13 62.8 °F 45.0 °F 30.01 in ENE 4.0 mph 11.0 mph 52 % 0.00 in
12:28 63.5 °F 45.0 °F 30.01 in Calm   11.0 mph 52 % 0.00 in
12:43 64.1 °F 45.0 °F 30.01 in East 3.0 mph 14.0 mph 50 % 0.00 in
12:58 64.8 °F 45.0 °F 30.01 in NE 2.0 mph 13.0 mph 49 % 0.00 in
13:13 65.2 °F 46.0 °F 30.02 in NNW 10.0 mph 15.0 mph 51 % 0.00 in
13:28 65.5 °F 46.0 °F 30.01 in NE 1.0 mph 13.0 mph 49 % 0.00 in
13:43 64.8 °F 46.0 °F 30.00 in NE 3.0 mph 14.0 mph 51 % 0.00 in
13:58 65.3 °F 45.0 °F 30.00 in ESE 7.0 mph 15.0 mph 48 % 0.00 in
14:13 65.3 °F 45.0 °F 30.00 in East 5.0 mph 17.0 mph 49 % 0.00 in
14:28 65.4 °F 46.0 °F 30.00 in NNE 10.0 mph 13.0 mph 49 % 0.00 in
14:43 65.3 °F 47.0 °F 30.00 in North 6.0 mph 19.0 mph 51 % 0.00 in
14:58 65.6 °F 46.0 °F 30.00 in NNE 6.0 mph 13.0 mph 50 % 0.00 in
15:13 65.6 °F 46.0 °F 30.00 in NW 6.0 mph 15.0 mph 50 % 0.00 in
15:28 65.7 °F 47.0 °F 30.00 in NNW 3.0 mph 13.0 mph 51 % 0.00 in
15:43 64.8 °F 46.0 °F 30.00 in NE 2.0 mph 15.0 mph 51 % 0.00 in
15:58 65.0 °F 46.0 °F 30.00 in North 2.0 mph 15.0 mph 51 % 0.00 in
16:13 65.4 °F 46.0 °F 30.01 in NNE 2.0 mph 12.0 mph 50 % 0.00 in
16:28 64.9 °F 45.0 °F 30.02 in East 7.0 mph 13.0 mph 48 % 0.00 in
16:43 64.4 °F 44.0 °F 30.02 in NE 6.0 mph 14.0 mph 48 % 0.00 in
16:58 64.1 °F 44.0 °F 30.03 in East 5.0 mph 12.0 mph 49 % 0.00 in
17:13 63.9 °F 43.0 °F 30.03 in North 9.0 mph 14.0 mph 47 % 0.00 in
17:28 64.4 °F 41.0 °F 30.03 in NE 4.0 mph 11.0 mph 42 % 0.00 in
17:43 64.1 °F 40.0 °F 30.04 in NNE 2.0 mph 9.0 mph 41 % 0.00 in
17:58 63.8 °F 39.0 °F 30.04 in East 7.0 mph 12.0 mph 41 % 0.00 in
18:13 63.3 °F 38.0 °F 30.05 in NE 5.0 mph 12.0 mph 39 % 0.00 in
18:28 62.3 °F 36.0 °F 30.05 in ENE 3.0 mph 12.0 mph 37 % 0.00 in
18:43 61.5 °F 35.0 °F 30.06 in ENE 3.0 mph 10.0 mph 38 % 0.00 in
18:59 61.3 °F 35.0 °F 30.06 in East 7.0 mph 10.0 mph 38 % 0.00 in
19:29 60.4 °F 33.0 °F 30.07 in NE 2.0 mph 9.0 mph 36 % 0.00 in
19:44 59.8 °F 33.0 °F 30.08 in Calm   5.0 mph 36 % 0.00 in
19:59 59.2 °F 33.0 °F 30.08 in Calm   5.0 mph 37 % 0.00 in
20:14 58.4 °F 33.0 °F 30.09 in NNE 2.0 mph 6.0 mph 38 % 0.00 in
20:29 57.6 °F 37.0 °F 30.10 in Calm   10.0 mph 47 % 0.00 in
20:44 56.7 °F 38.0 °F 30.11 in NNE 3.0 mph 12.0 mph 50 % 0.00 in
20:59 55.7 °F 39.0 °F 30.12 in NE 5.0 mph 15.0 mph 53 % 0.00 in
21:14 54.7 °F 39.0 °F 30.12 in ENE 4.0 mph 16.0 mph 55 % 0.00 in
21:29 53.8 °F 39.0 °F 30.13 in ENE 3.0 mph 11.0 mph 57 % 0.00 in
21:44 53.2 °F 39.0 °F 30.14 in Calm   10.0 mph 59 % 0.00 in
21:59 52.6 °F 39.0 °F 30.15 in NE 2.0 mph 15.0 mph 60 % 0.00 in
22:14 52.0 °F 39.0 °F 30.15 in NNW 2.0 mph 11.0 mph 61 % 0.00 in
22:29 51.6 °F 38.0 °F 30.16 in Calm   7.0 mph 61 % 0.00 in
22:44 51.2 °F 38.0 °F 30.16 in NNE 2.0 mph 9.0 mph 61 % 0.00 in
23:00 50.9 °F 38.0 °F 30.16 in NE 1.0 mph 10.0 mph 61 % 0.00 in
23:14 50.5 °F 38.0 °F 30.17 in East 3.0 mph 10.0 mph 62 % 0.00 in
23:29 50.0 °F 38.0 °F 30.17 in ESE 1.0 mph 9.0 mph 63 % 0.00 in
23:44 49.5 °F 37.0 °F 30.17 in Calm   11.0 mph 63 % 0.00 in
23:59 49.0 °F 37.0 °F 30.18 in NNE 5.0 mph 11.0 mph 63 % 0.00 in
Des Moines Weather and Climate
Compliments of Weather Underground - 3 mb

Script developed by  Jim McMurry - jmcmurry@mwt.net Adapted for the template by  Wim van der Kuil - Leuven-Template.eu

You find our weather info also at:

Weather Underground

Equipment we use:

Weather-station
Davis VP2 Plus

Weather-program
Davis Weatherlink.Com

Weather-server
iMac (Retina 4K, 21.5-inch, Late 2015)

Provider
Hostmonster.com

Davis VP2 Plus

Davis Weatherlink.Com

iMac (Retina 4K, 21.5-inch, Late 2015)

Hostmonster.com